createdAt,value
2022-08-02T00:01:20.447Z,19.33
2022-08-02T00:03:50.203Z,19.46
2022-08-02T00:06:22.925Z,19.26
2022-08-02T00:08:53.983Z,19.36
2022-08-02T00:11:23.788Z,19.42
2022-08-02T00:13:53.664Z,19.28
2022-08-02T00:16:37.548Z,19.47
2022-08-02T00:19:09.016Z,19.37
2022-08-02T00:21:41.445Z,19.23
2022-08-02T00:24:28.886Z,19.18
2022-08-02T00:27:00.300Z,19.22
2022-08-02T00:29:30.091Z,19.19
2022-08-02T00:32:00.187Z,19.21
2022-08-02T00:34:32.064Z,19.17
2022-08-02T00:37:07.418Z,19.17
2022-08-02T00:39:37.309Z,19.12
2022-08-02T00:42:07.619Z,19.12
2022-08-02T00:44:37.505Z,19.24
2022-08-02T00:47:07.672Z,19.24
2022-08-02T00:49:37.612Z,19.14
2022-08-02T00:52:10.824Z,19.16
2022-08-02T00:54:40.786Z,19.22
2022-08-02T00:57:10.558Z,19.13
2022-08-02T00:59:42.061Z,19.00
2022-08-02T01:02:12.262Z,19.07
2022-08-02T01:04:42.166Z,18.99
2022-08-02T01:07:14.765Z,18.85
2022-08-02T01:09:44.957Z,18.92
2022-08-02T01:12:15.880Z,18.91
2022-08-02T01:14:49.037Z,19.00
2022-08-02T01:17:26.001Z,18.88
2022-08-02T01:20:06.262Z,19.01
2022-08-02T01:23:01.974Z,19.01
2022-08-02T01:25:49.963Z,18.91
2022-08-02T01:28:33.054Z,18.79
2022-08-02T01:31:07.574Z,18.82
2022-08-02T01:33:44.388Z,18.79
2022-08-02T01:36:16.935Z,18.88
2022-08-02T01:38:50.079Z,18.91
2022-08-02T01:41:24.098Z,18.86
2022-08-02T01:44:00.950Z,18.97
2022-08-02T01:46:32.527Z,18.89
2022-08-02T01:49:08.518Z,18.78
2022-08-02T01:51:53.131Z,18.73
2022-08-02T01:54:29.411Z,18.74
2022-08-02T01:57:00.616Z,18.90
2022-08-02T01:59:35.079Z,18.83
2022-08-02T02:02:05.873Z,18.89
2022-08-02T02:04:37.896Z,18.85
2022-08-02T02:07:10.090Z,18.95
2022-08-02T02:09:50.880Z,18.82
2022-08-02T02:12:22.433Z,18.74
2022-08-02T02:14:57.448Z,18.84
2022-08-02T02:17:52.906Z,18.74
2022-08-02T02:20:21.630Z,18.82
2022-08-02T02:22:52.256Z,18.67
2022-08-02T02:25:36.048Z,18.74
2022-08-02T02:28:14.932Z,18.75
2022-08-02T02:30:51.943Z,18.65
2022-08-02T02:33:27.680Z,18.77
2022-08-02T02:36:01.273Z,18.75
2022-08-02T02:38:34.876Z,18.64
2022-08-02T02:41:08.023Z,18.48
2022-08-02T02:43:40.918Z,18.57
2022-08-02T02:46:15.769Z,18.35
2022-08-02T02:48:45.856Z,18.36
2022-08-02T02:51:16.597Z,18.46
2022-08-02T02:54:32.033Z,18.35
2022-08-02T02:56:41.891Z,18.40
2022-08-02T02:59:12.975Z,18.53
2022-08-02T03:01:56.910Z,18.41
2022-08-02T03:04:55.261Z,18.22
2022-08-02T03:07:19.785Z,18.32
2022-08-02T03:09:54.255Z,18.37
2022-08-02T03:12:31.953Z,18.36
2022-08-02T03:15:03.874Z,18.33
2022-08-02T03:17:49.367Z,18.22
2022-08-02T03:20:21.064Z,18.20
2022-08-02T03:22:51.331Z,18.14
2022-08-02T03:25:21.636Z,18.13
2022-08-02T03:27:51.380Z,18.26
2022-08-02T03:30:24.748Z,18.12
2022-08-02T03:32:57.320Z,18.06
2022-08-02T03:35:27.161Z,18.08
2022-08-02T03:37:58.792Z,18.04
2022-08-02T03:40:29.751Z,17.97
2022-08-02T03:43:00.125Z,18.09
2022-08-02T03:45:30.764Z,18.07
2022-08-02T03:48:12.635Z,18.02
2022-08-02T03:50:54.557Z,17.92
2022-08-02T03:53:25.773Z,17.79
2022-08-02T03:55:56.785Z,17.80
2022-08-02T03:58:27.642Z,17.80
2022-08-02T04:00:59.336Z,17.88
2022-08-02T04:03:31.789Z,17.80
2022-08-02T04:06:04.564Z,17.73
2022-08-02T04:08:38.371Z,17.53
2022-08-02T04:11:21.286Z,17.55
2022-08-02T04:13:51.134Z,17.67
2022-08-02T04:16:24.371Z,17.79
2022-08-02T04:18:59.421Z,17.87
2022-08-02T04:21:48.432Z,17.86
2022-08-02T04:24:25.216Z,17.88
2022-08-02T04:27:06.600Z,17.96
2022-08-02T04:29:47.035Z,18.00
2022-08-02T04:32:17.735Z,18.06
2022-08-02T04:35:17.795Z,18.05
2022-08-02T04:38:08.566Z,17.95
2022-08-02T04:40:31.662Z,17.98
2022-08-02T04:43:01.552Z,18.06
2022-08-02T04:45:33.506Z,18.04
2022-08-02T04:48:05.533Z,18.08
2022-08-02T04:50:38.745Z,18.09
2022-08-02T04:53:08.491Z,18.17
2022-08-02T04:55:38.256Z,18.26
2022-08-02T04:58:36.952Z,18.30
2022-08-02T05:00:57.839Z,18.33
2022-08-02T05:03:27.807Z,18.35
2022-08-02T05:06:00.820Z,18.32
2022-08-02T05:08:30.632Z,18.38
2022-08-02T05:11:00.440Z,18.35
2022-08-02T05:13:30.397Z,18.42
2022-08-02T05:16:03.204Z,18.46
2022-08-02T05:18:33.486Z,18.53
2022-08-02T05:21:06.434Z,18.61
2022-08-02T05:23:36.248Z,18.76
2022-08-02T05:26:06.006Z,18.96
2022-08-02T05:28:35.746Z,19.07
2022-08-02T05:31:06.423Z,19.37
2022-08-02T05:33:43.055Z,19.34
2022-08-02T05:36:15.826Z,19.26
2022-08-02T05:38:49.744Z,19.45
2022-08-02T05:41:19.853Z,19.94
2022-08-02T05:43:50.361Z,20.09
2022-08-02T05:46:20.076Z,20.15
2022-08-02T05:48:49.796Z,20.12
2022-08-02T05:51:26.668Z,19.92
2022-08-02T05:54:05.619Z,19.70
2022-08-02T05:56:39.056Z,19.77
2022-08-02T05:59:20.825Z,19.92
2022-08-02T06:01:52.132Z,20.25
2022-08-02T06:04:30.694Z,20.21
2022-08-02T06:07:06.817Z,20.12
2022-08-02T06:09:37.748Z,20.04
2022-08-02T06:12:10.138Z,20.22
2022-08-02T06:14:40.816Z,20.47
2022-08-02T06:17:11.626Z,20.96
2022-08-02T06:19:51.082Z,21.13
2022-08-02T06:22:33.203Z,21.15
2022-08-02T06:25:11.510Z,21.08
2022-08-02T06:27:57.845Z,20.98
2022-08-02T06:30:27.893Z,20.98
2022-08-02T06:32:58.390Z,21.06
2022-08-02T06:35:31.851Z,21.13
2022-08-02T06:38:06.350Z,21.27
2022-08-02T06:40:41.976Z,21.62
2022-08-02T06:43:16.131Z,21.71
2022-08-02T06:45:45.875Z,21.89
2022-08-02T06:48:15.900Z,22.15
2022-08-02T06:50:46.050Z,22.36
2022-08-02T06:53:18.361Z,22.53
2022-08-02T06:55:48.063Z,22.79
2022-08-02T06:58:17.850Z,22.99
2022-08-02T07:00:47.733Z,23.08
2022-08-02T07:03:17.563Z,23.29
2022-08-02T07:05:48.636Z,23.47
2022-08-02T07:08:23.099Z,23.41
2022-08-02T07:10:52.868Z,23.70
2022-08-02T07:13:22.728Z,23.99
2022-08-02T07:15:52.829Z,24.01
2022-08-02T07:18:22.647Z,23.94
2022-08-02T07:20:52.449Z,24.39
2022-08-02T07:23:24.904Z,24.48
2022-08-02T07:26:02.905Z,24.70
2022-08-02T07:28:34.028Z,24.63
2022-08-02T07:31:03.745Z,24.77
2022-08-02T07:33:38.187Z,24.84
2022-08-02T07:36:16.961Z,25.03
2022-08-02T07:38:54.885Z,25.36
2022-08-02T07:41:24.911Z,25.34
2022-08-02T07:43:54.712Z,25.31
2022-08-02T07:46:24.408Z,25.44
2022-08-02T07:48:55.069Z,25.44
2022-08-02T07:51:25.292Z,25.66
2022-08-02T07:54:02.737Z,25.48
2022-08-02T07:56:33.683Z,25.69
2022-08-02T07:59:03.415Z,25.76
2022-08-02T08:01:33.360Z,25.89
2022-08-02T08:04:06.015Z,26.04
2022-08-02T08:06:35.837Z,26.04
2022-08-02T08:09:08.151Z,26.00
2022-08-02T08:11:37.964Z,26.55
2022-08-02T08:14:11.176Z,26.35
2022-08-02T08:16:44.581Z,26.50
2022-08-02T08:19:14.265Z,26.41
2022-08-02T08:21:43.995Z,26.49
2022-08-02T08:24:16.304Z,26.37
2022-08-02T08:26:46.005Z,26.48
2022-08-02T08:29:15.960Z,26.44
2022-08-02T08:31:45.842Z,26.89
2022-08-02T08:34:15.919Z,26.91
2022-08-02T08:36:45.946Z,26.97
2022-08-02T08:39:18.427Z,27.07
2022-08-02T08:41:48.144Z,27.17
2022-08-02T08:44:17.889Z,27.30
2022-08-02T08:46:50.518Z,27.39
2022-08-02T08:49:26.280Z,27.32
2022-08-02T08:51:58.903Z,27.38
2022-08-02T08:54:32.980Z,27.47
2022-08-02T08:57:03.538Z,27.44
2022-08-02T08:59:39.007Z,27.65
2022-08-02T09:02:09.626Z,27.50
2022-08-02T09:04:54.896Z,27.82
2022-08-02T09:07:25.027Z,27.76
2022-08-02T09:09:57.523Z,28.12
2022-08-02T09:12:27.441Z,28.15
2022-08-02T09:14:57.150Z,27.79
2022-08-02T09:17:27.153Z,27.81
2022-08-02T09:20:10.460Z,28.02
2022-08-02T09:22:40.254Z,28.04
2022-08-02T09:25:18.554Z,27.75
2022-08-02T09:27:51.445Z,27.91
2022-08-02T09:30:21.339Z,28.18
2022-08-02T09:32:51.339Z,28.21
2022-08-02T09:36:07.117Z,28.36
2022-08-02T09:38:26.129Z,28.61
2022-08-02T09:40:59.402Z,28.65
2022-08-02T09:44:04.049Z,28.38
2022-08-02T09:46:31.503Z,28.50
2022-08-02T09:49:03.773Z,28.62
2022-08-02T09:51:36.200Z,28.67
2022-08-02T09:54:09.435Z,28.59
2022-08-02T09:56:47.702Z,28.46
2022-08-02T09:59:18.031Z,28.87
2022-08-02T10:01:50.458Z,28.85
2022-08-02T10:04:24.947Z,28.79
2022-08-02T10:06:56.419Z,29.13
2022-08-02T10:09:26.385Z,29.22
2022-08-02T10:11:58.866Z,29.41
2022-08-02T10:14:29.547Z,29.37
2022-08-02T10:17:00.452Z,29.29
2022-08-02T10:20:02.309Z,28.90
2022-08-02T10:22:20.631Z,28.27
2022-08-02T10:24:52.223Z,27.84
2022-08-02T10:27:26.233Z,27.54
2022-08-02T10:30:00.493Z,27.52
2022-08-02T10:32:33.159Z,27.27
2022-08-02T10:35:20.154Z,27.24
2022-08-02T10:38:01.482Z,27.12
2022-08-02T10:40:46.238Z,27.09
2022-08-02T10:43:45.503Z,26.71
2022-08-02T10:46:37.649Z,26.72
2022-08-02T10:52:09.066Z,26.50
2022-08-02T10:54:42.557Z,26.41
2022-08-02T10:57:24.210Z,26.30
2022-08-02T10:59:59.946Z,26.62
2022-08-02T11:02:42.403Z,27.47
2022-08-02T11:05:18.141Z,27.74
2022-08-02T11:07:50.942Z,28.24
2022-08-02T11:10:38.129Z,28.70
2022-08-02T11:13:16.967Z,28.84
2022-08-02T11:16:03.696Z,28.62
2022-08-02T11:19:07.627Z,28.62
2022-08-02T11:21:38.518Z,29.01
2022-08-02T11:24:30.438Z,29.02
2022-08-02T11:27:02.169Z,29.05
2022-08-02T11:29:39.446Z,29.32
2022-08-02T11:32:19.002Z,29.51
2022-08-02T11:34:51.903Z,29.45
2022-08-02T11:37:31.346Z,29.71
2022-08-02T11:40:01.248Z,29.79
2022-08-02T11:42:38.385Z,30.02
2022-08-02T11:45:10.400Z,29.94
2022-08-02T11:47:52.019Z,29.84
2022-08-02T11:50:29.722Z,30.08
2022-08-02T11:53:00.680Z,29.90
2022-08-02T11:55:31.795Z,30.28
2022-08-02T11:58:04.328Z,30.54
2022-08-02T12:00:35.052Z,30.63
2022-08-02T12:03:07.746Z,30.73
2022-08-02T12:06:05.498Z,30.68
2022-08-02T12:08:28.826Z,30.67
2022-08-02T12:11:00.533Z,30.64
2022-08-02T12:13:30.242Z,30.37
2022-08-02T12:16:19.968Z,30.80
2022-08-02T12:19:06.466Z,30.71
2022-08-02T12:21:36.519Z,30.82
2022-08-02T12:24:06.746Z,30.62
2022-08-02T12:26:45.471Z,30.53
2022-08-02T12:29:16.166Z,30.69
2022-08-02T12:32:06.990Z,30.37
2022-08-02T12:34:39.413Z,30.80
2022-08-02T12:37:12.657Z,30.83
2022-08-02T12:39:45.920Z,30.75
2022-08-02T12:42:17.669Z,31.09
2022-08-02T12:44:54.259Z,31.12
2022-08-02T12:47:24.590Z,30.73
2022-08-02T12:50:18.855Z,31.08
2022-08-02T12:52:48.601Z,31.03
2022-08-02T12:55:24.485Z,30.69
2022-08-02T12:57:55.977Z,30.97
2022-08-02T13:00:30.971Z,30.68
2022-08-02T13:03:01.815Z,30.65
2022-08-02T13:05:56.890Z,30.77
2022-08-02T13:08:26.445Z,31.07
2022-08-02T13:10:56.127Z,31.23
2022-08-02T13:13:25.775Z,31.49
2022-08-02T13:15:55.461Z,31.51
2022-08-02T13:18:30.311Z,31.27
2022-08-02T13:21:04.819Z,30.97
2022-08-02T13:23:54.168Z,30.85
2022-08-02T13:26:26.417Z,30.55
2022-08-02T13:28:59.384Z,30.62
2022-08-02T13:31:36.719Z,30.83
2022-08-02T13:34:07.437Z,31.03
2022-08-02T13:36:39.779Z,30.95
2022-08-02T13:39:10.482Z,30.62
2022-08-02T13:41:40.360Z,30.57
2022-08-02T13:44:11.051Z,30.64
2022-08-02T13:46:45.091Z,30.73
2022-08-02T13:49:19.510Z,30.69
2022-08-02T13:51:52.803Z,30.77
2022-08-02T13:54:22.594Z,30.61
2022-08-02T13:56:52.633Z,30.65
2022-08-02T13:59:57.625Z,29.95
2022-08-02T14:02:13.955Z,29.97
2022-08-02T14:04:48.098Z,30.31
2022-08-02T14:07:20.589Z,30.38
2022-08-02T14:09:50.229Z,30.35
2022-08-02T14:12:20.059Z,30.29
2022-08-02T14:14:49.686Z,30.45
2022-08-02T14:17:19.606Z,30.50
2022-08-02T14:19:50.915Z,30.40
2022-08-02T14:22:23.315Z,30.42
2022-08-02T14:24:55.635Z,30.40
2022-08-02T14:27:25.282Z,30.23
2022-08-02T14:29:54.979Z,30.33
2022-08-02T14:32:30.060Z,30.36
2022-08-02T14:35:02.442Z,30.50
2022-08-02T14:37:34.660Z,30.68
2022-08-02T14:40:04.297Z,30.85
2022-08-02T14:42:34.014Z,30.89
2022-08-02T14:45:04.274Z,30.43
2022-08-02T14:47:34.018Z,30.48
2022-08-02T14:50:03.821Z,30.58
2022-08-02T14:52:36.169Z,30.58
2022-08-02T14:55:06.525Z,30.60
2022-08-02T14:57:36.310Z,30.40
2022-08-02T15:00:07.386Z,30.23
2022-08-02T15:02:37.220Z,30.46
2022-08-02T15:05:07.631Z,30.46
2022-08-02T15:07:44.263Z,30.57
2022-08-02T15:10:16.207Z,30.56
2022-08-02T15:12:45.899Z,30.58
2022-08-02T15:15:15.582Z,30.50
2022-08-02T15:17:45.338Z,30.51
2022-08-02T15:20:25.621Z,30.41
2022-08-02T15:22:58.628Z,30.26
2022-08-02T15:25:28.608Z,30.26
2022-08-02T15:27:58.305Z,30.29
2022-08-02T15:30:28.240Z,30.32
2022-08-02T15:32:57.867Z,30.26
2022-08-02T15:35:27.581Z,30.20
2022-08-02T15:37:59.880Z,30.15
2022-08-02T15:40:30.815Z,30.15
2022-08-02T15:43:00.730Z,30.02
2022-08-02T15:45:30.396Z,29.81
2022-08-02T15:48:00.032Z,29.63
2022-08-02T15:50:29.821Z,29.53
2022-08-02T15:53:02.100Z,29.52
2022-08-02T15:55:52.052Z,29.53
2022-08-02T15:58:22.588Z,29.45
2022-08-02T16:00:52.593Z,29.36
2022-08-02T16:03:22.232Z,29.37
2022-08-02T16:05:51.872Z,29.29
2022-08-02T16:08:24.240Z,29.24
2022-08-02T16:10:53.858Z,29.16
2022-08-02T16:13:39.614Z,29.12
2022-08-02T16:16:23.455Z,29.03
2022-08-02T16:18:53.335Z,28.90
2022-08-02T16:21:23.587Z,28.88
2022-08-02T16:24:01.478Z,28.81
2022-08-02T16:26:34.356Z,28.75
2022-08-02T16:29:05.615Z,28.71
2022-08-02T16:31:40.019Z,28.62
2022-08-02T16:34:11.861Z,28.52
2022-08-02T16:36:41.801Z,28.46
2022-08-02T16:39:14.337Z,28.31
2022-08-02T16:41:51.090Z,28.27
2022-08-02T16:44:26.931Z,28.27
2022-08-02T16:47:01.830Z,28.26
2022-08-02T16:50:05.648Z,28.17
2022-08-02T16:52:21.582Z,28.12
2022-08-02T16:54:53.830Z,28.08
2022-08-02T16:57:23.437Z,28.04
2022-08-02T17:00:14.010Z,28.03
2022-08-02T17:02:46.956Z,27.99
2022-08-02T17:05:17.520Z,27.92
2022-08-02T17:08:07.878Z,27.89
2022-08-02T17:10:40.215Z,27.87
2022-08-02T17:13:12.168Z,27.80
2022-08-02T17:16:17.157Z,27.79
2022-08-02T17:18:34.193Z,27.72
2022-08-02T17:21:08.108Z,27.73
2022-08-02T17:24:04.046Z,27.66
2022-08-02T17:26:30.211Z,27.43
2022-08-02T17:29:18.007Z,27.44
2022-08-02T17:32:05.772Z,27.41
2022-08-02T17:34:39.762Z,27.32
2022-08-02T17:37:18.659Z,27.32
2022-08-02T17:39:51.911Z,27.32
2022-08-02T17:42:25.034Z,27.26
2022-08-02T17:45:06.753Z,27.18
2022-08-02T17:48:04.250Z,27.15
2022-08-02T17:50:34.756Z,27.14
2022-08-02T17:53:04.450Z,27.09
2022-08-02T17:55:37.968Z,27.07
2022-08-02T17:58:12.942Z,27.02
2022-08-02T18:00:45.072Z,26.93
2022-08-02T18:03:14.904Z,26.84
2022-08-02T18:05:53.410Z,26.81
2022-08-02T18:08:25.480Z,26.72
2022-08-02T18:10:55.930Z,26.62
2022-08-02T18:13:33.075Z,26.47
2022-08-02T18:16:05.637Z,26.43
2022-08-02T18:18:50.709Z,26.33
2022-08-02T18:21:22.721Z,26.31
2022-08-02T18:23:58.364Z,26.21
2022-08-02T18:26:28.886Z,26.17
2022-08-02T18:29:04.301Z,26.08
2022-08-02T18:34:23.913Z,25.86
2022-08-02T18:36:53.544Z,25.83
2022-08-02T18:39:23.102Z,25.77
2022-08-02T18:41:52.712Z,25.76
2022-08-02T18:44:26.506Z,25.77
2022-08-02T18:46:56.076Z,25.75
2022-08-02T18:49:29.984Z,25.70
2022-08-02T18:52:15.783Z,25.56
2022-08-02T18:55:00.497Z,25.44
2022-08-02T18:58:03.308Z,25.51
2022-08-02T19:00:25.916Z,25.36
2022-08-02T19:02:56.806Z,25.36
2022-08-02T19:05:53.577Z,25.34
2022-08-02T19:08:17.299Z,25.27
2022-08-02T19:10:49.303Z,25.25
2022-08-02T19:13:19.733Z,25.11
2022-08-02T19:15:52.525Z,25.20
2022-08-02T19:18:26.895Z,25.04
2022-08-02T19:21:05.288Z,24.94
2022-08-02T19:23:35.891Z,24.76
2022-08-02T19:26:06.055Z,24.60
2022-08-02T19:28:39.414Z,24.61
2022-08-02T19:31:13.490Z,24.57
2022-08-02T19:34:05.804Z,24.45
2022-08-02T19:36:34.311Z,24.45
2022-08-02T19:39:03.960Z,24.33
2022-08-02T19:41:43.866Z,24.32
2022-08-02T19:44:26.509Z,24.40
2022-08-02T19:47:01.464Z,24.38
2022-08-02T19:49:39.228Z,24.29
2022-08-02T19:52:21.933Z,24.21
2022-08-02T19:54:57.878Z,24.07
2022-08-02T19:57:29.395Z,23.99
2022-08-02T20:00:04.425Z,23.88
2022-08-02T20:02:36.839Z,23.84
2022-08-02T20:05:16.188Z,23.77
2022-08-02T20:07:54.674Z,23.78
2022-08-02T20:10:26.633Z,23.81
2022-08-02T20:12:56.934Z,23.66
2022-08-02T20:15:56.541Z,23.59
2022-08-02T20:21:28.456Z,23.55
2022-08-02T20:23:58.816Z,23.49
2022-08-02T20:26:28.850Z,23.41
2022-08-02T20:29:02.794Z,23.31
2022-08-02T20:31:32.653Z,23.20
2022-08-02T20:34:05.021Z,23.18
2022-08-02T20:36:37.165Z,23.12
2022-08-02T20:39:07.501Z,23.01
2022-08-02T20:41:46.371Z,23.12
2022-08-02T20:47:10.895Z,22.88
2022-08-02T20:50:03.193Z,22.60
2022-08-02T20:52:30.764Z,22.63
2022-08-02T20:55:00.394Z,22.78
2022-08-02T20:57:48.810Z,22.69
2022-08-02T21:00:20.696Z,22.61
2022-08-02T21:02:50.541Z,22.52
2022-08-02T21:05:26.535Z,22.46
2022-08-02T21:08:14.906Z,22.30
2022-08-02T21:10:52.117Z,22.09
2022-08-02T21:13:26.004Z,22.20
2022-08-02T21:15:57.643Z,22.31
2022-08-02T21:18:39.766Z,22.29
2022-08-02T21:21:14.607Z,22.35
2022-08-02T21:23:49.001Z,22.36
2022-08-02T21:26:27.991Z,22.28
2022-08-02T21:29:03.767Z,22.27
2022-08-02T21:31:35.779Z,22.24
2022-08-02T21:34:22.062Z,22.12
2022-08-02T21:36:59.051Z,22.03
2022-08-02T21:39:28.824Z,22.08
2022-08-02T21:41:58.516Z,22.09
2022-08-02T21:44:29.191Z,22.07
2022-08-02T21:47:00.426Z,22.07
2022-08-02T21:50:09.523Z,22.04
2022-08-02T21:55:15.046Z,21.82
2022-08-02T21:57:50.744Z,21.70
2022-08-02T22:00:28.609Z,21.56
2022-08-02T22:02:58.990Z,21.51
2022-08-02T22:05:48.758Z,21.57
2022-08-02T22:08:23.562Z,21.32
2022-08-02T22:11:16.991Z,21.32
2022-08-02T22:13:47.876Z,21.25
2022-08-02T22:16:18.333Z,21.13
2022-08-02T22:18:49.392Z,21.21
2022-08-02T22:21:22.957Z,21.10
2022-08-02T22:23:56.819Z,21.18
2022-08-02T22:26:26.452Z,21.25
2022-08-02T22:28:59.507Z,21.17
2022-08-02T22:31:40.400Z,20.96
2022-08-02T22:34:11.523Z,20.96
2022-08-02T22:36:57.116Z,21.11
2022-08-02T22:39:29.325Z,21.23
2022-08-02T22:42:06.053Z,21.20
2022-08-02T22:44:36.874Z,21.00
2022-08-02T22:47:14.706Z,20.97
2022-08-02T22:49:53.211Z,20.94
2022-08-02T22:52:25.950Z,20.92
2022-08-02T22:54:58.306Z,20.88
2022-08-02T22:57:30.445Z,20.86
2022-08-02T22:58:44.536Z,25.95
2022-08-02T22:58:55.200Z,23.52
2022-08-02T22:59:03.620Z,21.94
2022-08-02T22:59:05.255Z,22.89
2022-08-02T23:00:01.313Z,20.94
2022-08-02T23:02:31.025Z,20.91
2022-08-02T23:05:02.946Z,20.88
2022-08-02T23:07:36.388Z,20.83
2022-08-02T23:10:12.144Z,20.74
2022-08-02T23:12:41.764Z,20.72
2022-08-02T23:15:13.182Z,20.71
2022-08-02T23:17:55.487Z,20.70
2022-08-02T23:20:25.379Z,20.55
2022-08-02T23:22:55.789Z,20.41
2022-08-02T23:25:28.191Z,20.42
2022-08-02T23:27:57.935Z,20.39
2022-08-02T23:30:27.686Z,20.31
2022-08-02T23:32:57.389Z,20.31
2022-08-02T23:35:27.394Z,20.16
2022-08-02T23:38:00.700Z,20.16
2022-08-02T23:40:40.299Z,20.25
2022-08-02T23:43:13.413Z,20.14
2022-08-02T23:45:45.811Z,20.21
2022-08-02T23:48:15.597Z,20.09
2022-08-02T23:50:45.365Z,20.04
2022-08-02T23:53:15.022Z,20.05
2022-08-02T23:55:47.276Z,19.99
2022-08-02T23:58:16.960Z,19.89
